sensor_id;sensor_type;location;lat;lon;timestamp;temperature;humidity
17813;DHT22;9030;50.792;8.320;2023-04-26T00:02:16;0.40;99.90
17813;DHT22;9030;50.792;8.320;2023-04-26T00:04:43;0.40;99.90
17813;DHT22;9030;50.792;8.320;2023-04-26T00:07:10;0.40;99.90
17813;DHT22;9030;50.792;8.320;2023-04-26T00:09:38;0.40;99.90
17813;DHT22;9030;50.792;8.320;2023-04-26T00:12:06;0.50;99.90
17813;DHT22;9030;50.792;8.320;2023-04-26T00:14:34;0.40;99.90
17813;DHT22;9030;50.792;8.320;2023-04-26T00:17:01;0.40;99.90
17813;DHT22;9030;50.792;8.320;2023-04-26T00:19:30;0.40;99.90
17813;DHT22;9030;50.792;8.320;2023-04-26T00:21:57;0.50;99.90
17813;DHT22;9030;50.792;8.320;2023-04-26T00:24:24;0.40;99.90
17813;DHT22;9030;50.792;8.320;2023-04-26T00:26:53;0.40;99.90
17813;DHT22;9030;50.792;8.320;2023-04-26T00:29:19;0.40;99.90
17813;DHT22;9030;50.792;8.320;2023-04-26T00:31:46;0.40;99.90
17813;DHT22;9030;50.792;8.320;2023-04-26T00:34:13;0.50;99.90
17813;DHT22;9030;50.792;8.320;2023-04-26T00:36:41;0.40;99.90
17813;DHT22;9030;50.792;8.320;2023-04-26T00:39:08;0.40;99.90
17813;DHT22;9030;50.792;8.320;2023-04-26T00:41:35;0.40;99.90
17813;DHT22;9030;50.792;8.320;2023-04-26T00:44:02;0.50;99.90
17813;DHT22;9030;50.792;8.320;2023-04-26T00:46:29;0.40;99.90
17813;DHT22;9030;50.792;8.320;2023-04-26T00:48:56;0.40;99.90
17813;DHT22;9030;50.792;8.320;2023-04-26T00:51:23;0.40;99.90
17813;DHT22;9030;50.792;8.320;2023-04-26T00:53:51;0.30;99.90
17813;DHT22;9030;50.792;8.320;2023-04-26T00:56:18;0.30;99.90
17813;DHT22;9030;50.792;8.320;2023-04-26T00:58:46;0.30;99.90
17813;DHT22;9030;50.792;8.320;2023-04-26T01:01:13;0.30;99.90
17813;DHT22;9030;50.792;8.320;2023-04-26T01:03:40;0.20;99.90
17813;DHT22;9030;50.792;8.320;2023-04-26T01:06:07;0.10;99.90
17813;DHT22;9030;50.792;8.320;2023-04-26T01:08:34;0.10;99.90
17813;DHT22;9030;50.792;8.320;2023-04-26T01:11:03;0.10;99.90
17813;DHT22;9030;50.792;8.320;2023-04-26T01:13:31;0.10;99.90
17813;DHT22;9030;50.792;8.320;2023-04-26T01:15:58;0.20;99.90
17813;DHT22;9030;50.792;8.320;2023-04-26T01:18:25;0.10;99.90
17813;DHT22;9030;50.792;8.320;2023-04-26T01:20:52;0.10;99.90
17813;DHT22;9030;50.792;8.320;2023-04-26T01:23:22;0.10;99.90
17813;DHT22;9030;50.792;8.320;2023-04-26T01:25:49;0.00;99.90
17813;DHT22;9030;50.792;8.320;2023-04-26T01:28:16;-0.10;99.90
17813;DHT22;9030;50.792;8.320;2023-04-26T01:30:42;-0.20;99.90
17813;DHT22;9030;50.792;8.320;2023-04-26T01:33:09;-0.20;99.90
17813;DHT22;9030;50.792;8.320;2023-04-26T01:35:36;-0.30;99.90
17813;DHT22;9030;50.792;8.320;2023-04-26T01:38:03;-0.30;99.90
17813;DHT22;9030;50.792;8.320;2023-04-26T01:40:31;-0.30;99.90
17813;DHT22;9030;50.792;8.320;2023-04-26T01:42:58;-0.40;99.90
17813;DHT22;9030;50.792;8.320;2023-04-26T01:45:24;-0.40;99.90
17813;DHT22;9030;50.792;8.320;2023-04-26T01:47:52;-0.40;99.90
17813;DHT22;9030;50.792;8.320;2023-04-26T01:50:18;-0.40;99.90
17813;DHT22;9030;50.792;8.320;2023-04-26T01:52:45;-0.40;99.90
17813;DHT22;9030;50.792;8.320;2023-04-26T01:55:12;-0.50;99.90
17813;DHT22;9030;50.792;8.320;2023-04-26T01:57:40;-0.50;99.90
17813;DHT22;9030;50.792;8.320;2023-04-26T02:00:08;-0.50;99.90
17813;DHT22;9030;50.792;8.320;2023-04-26T02:02:35;-0.50;99.90
17813;DHT22;9030;50.792;8.320;2023-04-26T02:05:02;-0.60;99.90
17813;DHT22;9030;50.792;8.320;2023-04-26T02:07:29;-0.60;99.90
17813;DHT22;9030;50.792;8.320;2023-04-26T02:09:56;-0.60;99.90
17813;DHT22;9030;50.792;8.320;2023-04-26T02:12:23;-0.60;99.90
17813;DHT22;9030;50.792;8.320;2023-04-26T02:14:51;-0.60;99.90
17813;DHT22;9030;50.792;8.320;2023-04-26T02:17:18;-0.70;99.90
17813;DHT22;9030;50.792;8.320;2023-04-26T02:19:47;-0.70;99.90
17813;DHT22;9030;50.792;8.320;2023-04-26T02:22:14;-0.70;99.90
17813;DHT22;9030;50.792;8.320;2023-04-26T02:24:40;-0.80;99.90
17813;DHT22;9030;50.792;8.320;2023-04-26T02:27:07;-0.80;99.90
17813;DHT22;9030;50.792;8.320;2023-04-26T02:29:34;-0.80;99.90
17813;DHT22;9030;50.792;8.320;2023-04-26T02:32:03;-0.70;99.90
17813;DHT22;9030;50.792;8.320;2023-04-26T02:34:30;-0.80;99.90
17813;DHT22;9030;50.792;8.320;2023-04-26T02:36:57;-0.80;99.90
17813;DHT22;9030;50.792;8.320;2023-04-26T02:39:24;-0.80;99.90
17813;DHT22;9030;50.792;8.320;2023-04-26T02:41:50;-0.80;99.90
17813;DHT22;9030;50.792;8.320;2023-04-26T02:44:17;-0.80;99.90
17813;DHT22;9030;50.792;8.320;2023-04-26T02:46:44;-0.80;99.90
17813;DHT22;9030;50.792;8.320;2023-04-26T02:49:12;-0.90;99.90
17813;DHT22;9030;50.792;8.320;2023-04-26T02:51:39;-0.80;99.90
17813;DHT22;9030;50.792;8.320;2023-04-26T02:54:06;-0.90;99.90
17813;DHT22;9030;50.792;8.320;2023-04-26T02:56:33;-1.00;99.90
17813;DHT22;9030;50.792;8.320;2023-04-26T02:59:00;-1.00;99.90
17813;DHT22;9030;50.792;8.320;2023-04-26T03:01:27;-1.00;99.90
17813;DHT22;9030;50.792;8.320;2023-04-26T03:03:53;-1.00;99.90
17813;DHT22;9030;50.792;8.320;2023-04-26T03:06:21;-1.00;99.90
17813;DHT22;9030;50.792;8.320;2023-04-26T03:08:48;-1.00;99.90
17813;DHT22;9030;50.792;8.320;2023-04-26T03:11:15;-1.00;99.90
17813;DHT22;9030;50.792;8.320;2023-04-26T03:13:42;-1.00;99.90
17813;DHT22;9030;50.792;8.320;2023-04-26T03:16:08;-1.00;99.90
17813;DHT22;9030;50.792;8.320;2023-04-26T03:18:35;-1.00;99.90
17813;DHT22;9030;50.792;8.320;2023-04-26T03:21:02;-1.10;99.90
17813;DHT22;9030;50.792;8.320;2023-04-26T03:23:30;-1.20;99.90
17813;DHT22;9030;50.792;8.320;2023-04-26T03:25:57;-1.20;99.90
17813;DHT22;9030;50.792;8.320;2023-04-26T03:28:24;-1.20;99.90
17813;DHT22;9030;50.792;8.320;2023-04-26T03:30:51;-1.20;99.90
17813;DHT22;9030;50.792;8.320;2023-04-26T03:33:17;-1.20;99.90
17813;DHT22;9030;50.792;8.320;2023-04-26T03:35:44;-1.20;99.90
17813;DHT22;9030;50.792;8.320;2023-04-26T03:38:11;-1.20;99.90
17813;DHT22;9030;50.792;8.320;2023-04-26T03:40:39;-1.20;99.90
17813;DHT22;9030;50.792;8.320;2023-04-26T03:43:06;-1.20;99.90
17813;DHT22;9030;50.792;8.320;2023-04-26T03:45:33;-1.30;99.90
17813;DHT22;9030;50.792;8.320;2023-04-26T03:48:00;-1.30;99.90
17813;DHT22;9030;50.792;8.320;2023-04-26T03:50:26;-1.30;99.90
17813;DHT22;9030;50.792;8.320;2023-04-26T03:52:53;-1.30;99.90
17813;DHT22;9030;50.792;8.320;2023-04-26T03:55:21;-1.30;99.90
17813;DHT22;9030;50.792;8.320;2023-04-26T03:57:49;-1.30;99.90
17813;DHT22;9030;50.792;8.320;2023-04-26T04:00:18;-1.40;99.90
17813;DHT22;9030;50.792;8.320;2023-04-26T04:02:45;-1.40;99.90
17813;DHT22;9030;50.792;8.320;2023-04-26T04:05:12;-1.30;99.90
17813;DHT22;9030;50.792;8.320;2023-04-26T04:07:39;-1.40;99.90
17813;DHT22;9030;50.792;8.320;2023-04-26T04:10:07;-1.40;99.90
17813;DHT22;9030;50.792;8.320;2023-04-26T04:12:35;-1.40;99.90
17813;DHT22;9030;50.792;8.320;2023-04-26T04:15:03;-1.40;99.90
17813;DHT22;9030;50.792;8.320;2023-04-26T04:17:30;-1.50;99.90
17813;DHT22;9030;50.792;8.320;2023-04-26T04:19:57;-1.40;99.90
17813;DHT22;9030;50.792;8.320;2023-04-26T04:22:24;-1.40;99.90
17813;DHT22;9030;50.792;8.320;2023-04-26T04:24:51;-1.50;99.90
17813;DHT22;9030;50.792;8.320;2023-04-26T04:27:18;-1.40;99.90
17813;DHT22;9030;50.792;8.320;2023-04-26T04:29:45;-1.40;99.90
17813;DHT22;9030;50.792;8.320;2023-04-26T04:32:14;-1.50;99.90
17813;DHT22;9030;50.792;8.320;2023-04-26T04:34:41;-1.40;99.90
17813;DHT22;9030;50.792;8.320;2023-04-26T04:37:09;-1.40;99.90
17813;DHT22;9030;50.792;8.320;2023-04-26T04:39:36;-1.40;99.90
17813;DHT22;9030;50.792;8.320;2023-04-26T04:42:03;-1.30;99.90
17813;DHT22;9030;50.792;8.320;2023-04-26T04:44:29;-1.30;99.90
17813;DHT22;9030;50.792;8.320;2023-04-26T04:46:57;-1.20;99.90
17813;DHT22;9030;50.792;8.320;2023-04-26T04:49:25;-1.10;99.90
17813;DHT22;9030;50.792;8.320;2023-04-26T04:51:52;-1.00;99.90
17813;DHT22;9030;50.792;8.320;2023-04-26T04:54:19;-0.90;99.90
17813;DHT22;9030;50.792;8.320;2023-04-26T04:56:46;-0.80;99.90
17813;DHT22;9030;50.792;8.320;2023-04-26T04:59:12;-0.60;99.90
17813;DHT22;9030;50.792;8.320;2023-04-26T05:01:39;-0.40;99.90
17813;DHT22;9030;50.792;8.320;2023-04-26T05:04:06;-0.30;99.90
17813;DHT22;9030;50.792;8.320;2023-04-26T05:06:34;-0.20;99.90
17813;DHT22;9030;50.792;8.320;2023-04-26T05:09:01;-0.40;99.90
17813;DHT22;9030;50.792;8.320;2023-04-26T05:11:30;-0.40;99.90
17813;DHT22;9030;50.792;8.320;2023-04-26T05:13:57;-0.30;99.90
17813;DHT22;9030;50.792;8.320;2023-04-26T05:16:24;-0.30;99.90
17813;DHT22;9030;50.792;8.320;2023-04-26T05:18:51;-0.20;99.90
17813;DHT22;9030;50.792;8.320;2023-04-26T05:21:18;-0.20;99.90
17813;DHT22;9030;50.792;8.320;2023-04-26T05:23:46;0.00;99.90
17813;DHT22;9030;50.792;8.320;2023-04-26T05:26:14;0.20;99.90
17813;DHT22;9030;50.792;8.320;2023-04-26T05:28:41;0.30;99.90
17813;DHT22;9030;50.792;8.320;2023-04-26T05:31:08;0.30;99.90
17813;DHT22;9030;50.792;8.320;2023-04-26T05:33:35;0.40;99.90
17813;DHT22;9030;50.792;8.320;2023-04-26T05:36:02;0.80;99.90
17813;DHT22;9030;50.792;8.320;2023-04-26T05:38:29;1.20;99.90
17813;DHT22;9030;50.792;8.320;2023-04-26T05:40:57;1.50;99.90
17813;DHT22;9030;50.792;8.320;2023-04-26T05:43:24;1.80;99.90
17813;DHT22;9030;50.792;8.320;2023-04-26T05:45:51;2.10;99.90
17813;DHT22;9030;50.792;8.320;2023-04-26T05:48:19;2.30;99.90
17813;DHT22;9030;50.792;8.320;2023-04-26T05:50:47;2.40;99.90
17813;DHT22;9030;50.792;8.320;2023-04-26T05:53:14;2.60;99.90
17813;DHT22;9030;50.792;8.320;2023-04-26T05:55:40;2.80;99.90
17813;DHT22;9030;50.792;8.320;2023-04-26T05:58:09;2.60;99.90
17813;DHT22;9030;50.792;8.320;2023-04-26T06:00:36;2.50;99.90
17813;DHT22;9030;50.792;8.320;2023-04-26T06:03:03;2.60;99.90
17813;DHT22;9030;50.792;8.320;2023-04-26T06:05:30;2.80;99.90
17813;DHT22;9030;50.792;8.320;2023-04-26T06:07:57;2.90;99.90
17813;DHT22;9030;50.792;8.320;2023-04-26T06:10:25;3.10;99.90
17813;DHT22;9030;50.792;8.320;2023-04-26T06:12:52;3.10;99.90
17813;DHT22;9030;50.792;8.320;2023-04-26T06:15:20;3.30;99.90
17813;DHT22;9030;50.792;8.320;2023-04-26T06:17:47;3.30;99.90
17813;DHT22;9030;50.792;8.320;2023-04-26T06:20:14;3.50;99.90
17813;DHT22;9030;50.792;8.320;2023-04-26T06:22:40;3.60;99.90
17813;DHT22;9030;50.792;8.320;2023-04-26T06:25:07;3.90;99.90
17813;DHT22;9030;50.792;8.320;2023-04-26T06:27:34;4.20;99.90
17813;DHT22;9030;50.792;8.320;2023-04-26T06:30:04;4.50;99.90
17813;DHT22;9030;50.792;8.320;2023-04-26T06:32:32;4.90;99.90
17813;DHT22;9030;50.792;8.320;2023-04-26T06:34:59;4.80;99.90
17813;DHT22;9030;50.792;8.320;2023-04-26T06:37:27;4.80;99.90
17813;DHT22;9030;50.792;8.320;2023-04-26T06:39:53;4.90;99.90
17813;DHT22;9030;50.792;8.320;2023-04-26T06:42:20;4.90;99.90
17813;DHT22;9030;50.792;8.320;2023-04-26T06:44:47;5.20;99.90
17813;DHT22;9030;50.792;8.320;2023-04-26T06:47:14;5.40;99.90
17813;DHT22;9030;50.792;8.320;2023-04-26T06:49:42;5.60;99.90
17813;DHT22;9030;50.792;8.320;2023-04-26T06:52:08;5.90;99.90
17813;DHT22;9030;50.792;8.320;2023-04-26T06:54:35;6.10;99.90
17813;DHT22;9030;50.792;8.320;2023-04-26T06:57:02;6.40;99.90
17813;DHT22;9030;50.792;8.320;2023-04-26T06:59:29;6.50;99.90
17813;DHT22;9030;50.792;8.320;2023-04-26T07:01:55;6.70;99.90
17813;DHT22;9030;50.792;8.320;2023-04-26T07:04:22;6.90;99.90
17813;DHT22;9030;50.792;8.320;2023-04-26T07:06:51;7.20;99.90
17813;DHT22;9030;50.792;8.320;2023-04-26T07:09:17;7.30;99.90
17813;DHT22;9030;50.792;8.320;2023-04-26T07:11:45;7.50;99.90
17813;DHT22;9030;50.792;8.320;2023-04-26T07:14:12;7.50;99.90
17813;DHT22;9030;50.792;8.320;2023-04-26T07:16:38;7.60;99.90
17813;DHT22;9030;50.792;8.320;2023-04-26T07:19:06;7.50;99.90
17813;DHT22;9030;50.792;8.320;2023-04-26T07:21:33;6.90;99.90
17813;DHT22;9030;50.792;8.320;2023-04-26T07:24:02;7.40;99.90
17813;DHT22;9030;50.792;8.320;2023-04-26T07:26:28;7.80;99.90
17813;DHT22;9030;50.792;8.320;2023-04-26T07:28:55;8.00;99.90
17813;DHT22;9030;50.792;8.320;2023-04-26T07:31:22;8.20;99.90
17813;DHT22;9030;50.792;8.320;2023-04-26T07:33:49;8.50;99.90
17813;DHT22;9030;50.792;8.320;2023-04-26T07:36:16;8.50;99.90
17813;DHT22;9030;50.792;8.320;2023-04-26T07:38:43;8.40;99.90
17813;DHT22;9030;50.792;8.320;2023-04-26T07:41:11;7.70;99.90
17813;DHT22;9030;50.792;8.320;2023-04-26T07:43:38;6.80;99.90
17813;DHT22;9030;50.792;8.320;2023-04-26T07:46:05;6.30;99.90
17813;DHT22;9030;50.792;8.320;2023-04-26T07:48:31;6.20;99.90
17813;DHT22;9030;50.792;8.320;2023-04-26T07:51:06;6.50;99.90
17813;DHT22;9030;50.792;8.320;2023-04-26T07:53:33;6.80;99.90
17813;DHT22;9030;50.792;8.320;2023-04-26T07:56:02;7.50;99.90
17813;DHT22;9030;50.792;8.320;2023-04-26T07:58:30;8.30;99.90
17813;DHT22;9030;50.792;8.320;2023-04-26T08:00:58;8.60;99.90
17813;DHT22;9030;50.792;8.320;2023-04-26T08:03:25;7.90;99.90
17813;DHT22;9030;50.792;8.320;2023-04-26T08:05:52;7.00;99.90
17813;DHT22;9030;50.792;8.320;2023-04-26T08:08:19;6.10;99.90
17813;DHT22;9030;50.792;8.320;2023-04-26T08:10:46;6.00;99.90
17813;DHT22;9030;50.792;8.320;2023-04-26T08:13:13;6.00;99.90
17813;DHT22;9030;50.792;8.320;2023-04-26T08:15:41;6.10;99.90
17813;DHT22;9030;50.792;8.320;2023-04-26T08:18:10;6.20;99.90
17813;DHT22;9030;50.792;8.320;2023-04-26T08:20:37;6.60;99.90
17813;DHT22;9030;50.792;8.320;2023-04-26T08:23:04;6.70;99.90
17813;DHT22;9030;50.792;8.320;2023-04-26T08:25:31;7.20;99.90
17813;DHT22;9030;50.792;8.320;2023-04-26T08:27:59;7.50;99.90
17813;DHT22;9030;50.792;8.320;2023-04-26T08:30:26;7.80;99.90
17813;DHT22;9030;50.792;8.320;2023-04-26T08:32:55;7.70;99.90
17813;DHT22;9030;50.792;8.320;2023-04-26T08:35:22;7.30;99.90
17813;DHT22;9030;50.792;8.320;2023-04-26T08:37:48;6.60;99.90
17813;DHT22;9030;50.792;8.320;2023-04-26T08:40:21;6.40;99.90
17813;DHT22;9030;50.792;8.320;2023-04-26T08:42:48;6.50;99.90
17813;DHT22;9030;50.792;8.320;2023-04-26T08:45:17;6.50;99.90
17813;DHT22;9030;50.792;8.320;2023-04-26T08:47:46;6.80;99.90
17813;DHT22;9030;50.792;8.320;2023-04-26T08:50:19;7.30;99.90
17813;DHT22;9030;50.792;8.320;2023-04-26T08:52:48;7.90;99.90
17813;DHT22;9030;50.792;8.320;2023-04-26T08:55:16;7.40;99.90
17813;DHT22;9030;50.792;8.320;2023-04-26T08:57:46;7.00;99.90
17813;DHT22;9030;50.792;8.320;2023-04-26T09:00:14;7.20;99.90
17813;DHT22;9030;50.792;8.320;2023-04-26T09:02:45;7.20;99.90
17813;DHT22;9030;50.792;8.320;2023-04-26T09:05:12;6.90;99.90
17813;DHT22;9030;50.792;8.320;2023-04-26T09:07:44;7.40;99.90
17813;DHT22;9030;50.792;8.320;2023-04-26T09:10:12;7.20;99.90
17813;DHT22;9030;50.792;8.320;2023-04-26T09:12:39;7.20;99.90
17813;DHT22;9030;50.792;8.320;2023-04-26T09:15:07;7.50;99.90
17813;DHT22;9030;50.792;8.320;2023-04-26T09:17:35;7.30;99.90
17813;DHT22;9030;50.792;8.320;2023-04-26T09:20:18;7.40;99.90
17813;DHT22;9030;50.792;8.320;2023-04-26T09:22:47;7.60;99.90
17813;DHT22;9030;50.792;8.320;2023-04-26T09:25:15;7.70;99.90
17813;DHT22;9030;50.792;8.320;2023-04-26T09:27:43;7.70;99.90
17813;DHT22;9030;50.792;8.320;2023-04-26T09:30:13;7.60;99.90
17813;DHT22;9030;50.792;8.320;2023-04-26T09:32:51;7.80;99.90
17813;DHT22;9030;50.792;8.320;2023-04-26T09:35:26;8.10;99.90
17813;DHT22;9030;50.792;8.320;2023-04-26T09:37:56;8.20;99.90
17813;DHT22;9030;50.792;8.320;2023-04-26T09:40:25;8.00;99.90
17813;DHT22;9030;50.792;8.320;2023-04-26T09:43:00;8.00;99.90
17813;DHT22;9030;50.792;8.320;2023-04-26T09:45:29;8.30;99.90
17813;DHT22;9030;50.792;8.320;2023-04-26T09:48:12;8.40;99.90
17813;DHT22;9030;50.792;8.320;2023-04-26T09:50:41;8.10;99.90
17813;DHT22;9030;50.792;8.320;2023-04-26T09:53:09;7.70;99.90
17813;DHT22;9030;50.792;8.320;2023-04-26T09:55:36;8.00;99.90
17813;DHT22;9030;50.792;8.320;2023-04-26T09:58:09;7.80;99.90
17813;DHT22;9030;50.792;8.320;2023-04-26T10:00:37;7.80;99.90
17813;DHT22;9030;50.792;8.320;2023-04-26T10:03:07;8.50;99.90
17813;DHT22;9030;50.792;8.320;2023-04-26T10:05:35;8.90;99.90
17813;DHT22;9030;50.792;8.320;2023-04-26T10:08:03;8.60;99.90
17813;DHT22;9030;50.792;8.320;2023-04-26T10:10:32;8.70;99.90
17813;DHT22;9030;50.792;8.320;2023-04-26T10:12:59;8.90;99.90
17813;DHT22;9030;50.792;8.320;2023-04-26T10:15:27;9.10;99.90
17813;DHT22;9030;50.792;8.320;2023-04-26T10:17:54;8.90;99.90
17813;DHT22;9030;50.792;8.320;2023-04-26T10:20:21;8.50;99.90
17813;DHT22;9030;50.792;8.320;2023-04-26T10:22:52;7.80;99.90
17813;DHT22;9030;50.792;8.320;2023-04-26T10:25:19;7.60;99.90
17813;DHT22;9030;50.792;8.320;2023-04-26T10:27:49;7.40;99.90
17813;DHT22;9030;50.792;8.320;2023-04-26T10:30:17;7.50;99.90
17813;DHT22;9030;50.792;8.320;2023-04-26T10:33:12;7.60;99.90
17813;DHT22;9030;50.792;8.320;2023-04-26T10:36:04;7.70;99.90
17813;DHT22;9030;50.792;8.320;2023-04-26T10:38:32;7.70;99.90
17813;DHT22;9030;50.792;8.320;2023-04-26T10:41:27;7.90;99.90
17813;DHT22;9030;50.792;8.320;2023-04-26T10:43:57;8.10;99.90
17813;DHT22;9030;50.792;8.320;2023-04-26T10:46:36;8.00;99.90
17813;DHT22;9030;50.792;8.320;2023-04-26T10:49:14;8.20;99.90
17813;DHT22;9030;50.792;8.320;2023-04-26T10:52:09;8.50;99.90
17813;DHT22;9030;50.792;8.320;2023-04-26T10:54:51;8.80;99.90
17813;DHT22;9030;50.792;8.320;2023-04-26T10:57:18;8.90;99.90
17813;DHT22;9030;50.792;8.320;2023-04-26T11:00:24;8.90;99.90
17813;DHT22;9030;50.792;8.320;2023-04-26T11:03:05;8.90;99.90
17813;DHT22;9030;50.792;8.320;2023-04-26T11:05:47;9.20;99.90
17813;DHT22;9030;50.792;8.320;2023-04-26T11:08:17;9.80;99.90
17813;DHT22;9030;50.792;8.320;2023-04-26T11:10:49;9.90;99.90
17813;DHT22;9030;50.792;8.320;2023-04-26T11:13:17;10.10;99.90
17813;DHT22;9030;50.792;8.320;2023-04-26T11:15:46;10.00;99.90
17813;DHT22;9030;50.792;8.320;2023-04-26T11:18:13;9.40;99.90
17813;DHT22;9030;50.792;8.320;2023-04-26T11:20:44;9.20;99.90
17813;DHT22;9030;50.792;8.320;2023-04-26T11:23:10;8.60;99.90
17813;DHT22;9030;50.792;8.320;2023-04-26T11:25:38;8.80;99.90
17813;DHT22;9030;50.792;8.320;2023-04-26T11:28:05;9.10;99.90
17813;DHT22;9030;50.792;8.320;2023-04-26T11:30:32;9.30;99.90
17813;DHT22;9030;50.792;8.320;2023-04-26T11:33:02;9.20;99.90
17813;DHT22;9030;50.792;8.320;2023-04-26T11:35:31;8.80;99.90
17813;DHT22;9030;50.792;8.320;2023-04-26T11:37:58;9.00;99.90
17813;DHT22;9030;50.792;8.320;2023-04-26T11:40:30;9.50;99.90
17813;DHT22;9030;50.792;8.320;2023-04-26T11:43:00;10.20;99.90
17813;DHT22;9030;50.792;8.320;2023-04-26T11:45:27;10.10;99.90
17813;DHT22;9030;50.792;8.320;2023-04-26T11:47:55;9.70;99.90
17813;DHT22;9030;50.792;8.320;2023-04-26T11:50:24;9.30;99.90
17813;DHT22;9030;50.792;8.320;2023-04-26T11:52:53;9.60;99.90
17813;DHT22;9030;50.792;8.320;2023-04-26T11:55:23;9.80;97.60
17813;DHT22;9030;50.792;8.320;2023-04-26T11:57:51;10.30;99.90
17813;DHT22;9030;50.792;8.320;2023-04-26T12:00:19;11.40;99.90
17813;DHT22;9030;50.792;8.320;2023-04-26T12:02:46;11.70;99.90
17813;DHT22;9030;50.792;8.320;2023-04-26T12:05:22;11.80;94.70
17813;DHT22;9030;50.792;8.320;2023-04-26T12:07:50;11.80;95.20
17813;DHT22;9030;50.792;8.320;2023-04-26T12:10:19;11.70;98.80
17813;DHT22;9030;50.792;8.320;2023-04-26T12:12:50;12.00;97.50
17813;DHT22;9030;50.792;8.320;2023-04-26T12:15:17;12.00;95.60
17813;DHT22;9030;50.792;8.320;2023-04-26T12:17:54;12.20;98.00
17813;DHT22;9030;50.792;8.320;2023-04-26T12:20:27;11.80;92.50
17813;DHT22;9030;50.792;8.320;2023-04-26T12:23:04;11.10;96.10
17813;DHT22;9030;50.792;8.320;2023-04-26T12:25:32;11.20;94.20
17813;DHT22;9030;50.792;8.320;2023-04-26T12:28:00;10.20;94.40
17813;DHT22;9030;50.792;8.320;2023-04-26T12:30:27;9.60;94.80
17813;DHT22;9030;50.792;8.320;2023-04-26T12:32:55;9.70;98.40
17813;DHT22;9030;50.792;8.320;2023-04-26T12:35:22;10.80;99.90
17813;DHT22;9030;50.792;8.320;2023-04-26T12:37:50;11.40;91.50
17813;DHT22;9030;50.792;8.320;2023-04-26T12:40:21;11.70;95.20
17813;DHT22;9030;50.792;8.320;2023-04-26T12:42:49;11.40;89.10
17813;DHT22;9030;50.792;8.320;2023-04-26T12:45:16;11.50;93.40
17813;DHT22;9030;50.792;8.320;2023-04-26T12:47:44;12.10;96.20
17813;DHT22;9030;50.792;8.320;2023-04-26T12:50:11;12.10;95.30
17813;DHT22;9030;50.792;8.320;2023-04-26T12:52:38;11.40;93.40
17813;DHT22;9030;50.792;8.320;2023-04-26T12:55:08;11.10;95.70
17813;DHT22;9030;50.792;8.320;2023-04-26T12:57:35;11.30;91.20
17813;DHT22;9030;50.792;8.320;2023-04-26T13:00:03;11.10;90.30
17813;DHT22;9030;50.792;8.320;2023-04-26T13:02:31;10.80;90.70
17813;DHT22;9030;50.792;8.320;2023-04-26T13:04:58;10.60;92.20
17813;DHT22;9030;50.792;8.320;2023-04-26T13:07:25;10.50;92.60
17813;DHT22;9030;50.792;8.320;2023-04-26T13:09:52;10.80;95.10
17813;DHT22;9030;50.792;8.320;2023-04-26T13:12:21;11.70;95.50
17813;DHT22;9030;50.792;8.320;2023-04-26T13:14:47;12.30;93.70
17813;DHT22;9030;50.792;8.320;2023-04-26T13:17:14;12.10;94.40
17813;DHT22;9030;50.792;8.320;2023-04-26T13:19:41;12.40;92.20
17813;DHT22;9030;50.792;8.320;2023-04-26T13:22:09;12.10;94.50
17813;DHT22;9030;50.792;8.320;2023-04-26T13:24:36;12.40;92.10
17813;DHT22;9030;50.792;8.320;2023-04-26T13:27:04;12.40;91.80
17813;DHT22;9030;50.792;8.320;2023-04-26T13:29:32;12.70;90.70
17813;DHT22;9030;50.792;8.320;2023-04-26T13:31:59;11.30;91.30
17813;DHT22;9030;50.792;8.320;2023-04-26T13:34:26;10.80;92.40
17813;DHT22;9030;50.792;8.320;2023-04-26T13:36:54;11.50;94.90
17813;DHT22;9030;50.792;8.320;2023-04-26T13:39:22;12.30;92.30
17813;DHT22;9030;50.792;8.320;2023-04-26T13:41:49;11.80;91.10
17813;DHT22;9030;50.792;8.320;2023-04-26T13:44:17;11.40;90.60
17813;DHT22;9030;50.792;8.320;2023-04-26T13:46:45;11.20;97.40
17813;DHT22;9030;50.792;8.320;2023-04-26T13:49:12;11.10;91.70
17813;DHT22;9030;50.792;8.320;2023-04-26T13:51:40;10.90;91.30
17813;DHT22;9030;50.792;8.320;2023-04-26T13:54:07;11.00;91.50
17813;DHT22;9030;50.792;8.320;2023-04-26T13:56:35;11.00;91.80
17813;DHT22;9030;50.792;8.320;2023-04-26T13:59:02;11.20;93.10
17813;DHT22;9030;50.792;8.320;2023-04-26T14:01:32;11.20;90.90
17813;DHT22;9030;50.792;8.320;2023-04-26T14:04:01;11.10;90.10
17813;DHT22;9030;50.792;8.320;2023-04-26T14:06:28;11.10;90.20
17813;DHT22;9030;50.792;8.320;2023-04-26T14:08:57;10.80;91.70
17813;DHT22;9030;50.792;8.320;2023-04-26T14:11:23;10.70;92.10
17813;DHT22;9030;50.792;8.320;2023-04-26T14:13:50;10.80;90.80
17813;DHT22;9030;50.792;8.320;2023-04-26T14:16:20;10.60;91.50
17813;DHT22;9030;50.792;8.320;2023-04-26T14:18:47;10.80;92.50
17813;DHT22;9030;50.792;8.320;2023-04-26T14:21:15;11.40;94.40
17813;DHT22;9030;50.792;8.320;2023-04-26T14:23:42;11.30;89.30
17813;DHT22;9030;50.792;8.320;2023-04-26T14:26:09;11.90;91.10
17813;DHT22;9030;50.792;8.320;2023-04-26T14:28:36;12.30;89.40
17813;DHT22;9030;50.792;8.320;2023-04-26T14:31:03;12.60;90.10
17813;DHT22;9030;50.792;8.320;2023-04-26T14:33:30;12.30;85.70
17813;DHT22;9030;50.792;8.320;2023-04-26T14:35:57;12.50;91.80
17813;DHT22;9030;50.792;8.320;2023-04-26T14:38:25;12.40;88.80
17813;DHT22;9030;50.792;8.320;2023-04-26T14:40:52;12.50;92.00
17813;DHT22;9030;50.792;8.320;2023-04-26T14:43:18;12.90;91.20
17813;DHT22;9030;50.792;8.320;2023-04-26T14:45:45;12.70;88.10
17813;DHT22;9030;50.792;8.320;2023-04-26T14:48:12;12.20;88.30
17813;DHT22;9030;50.792;8.320;2023-04-26T14:50:38;11.60;90.00
17813;DHT22;9030;50.792;8.320;2023-04-26T14:53:05;11.50;90.00
17813;DHT22;9030;50.792;8.320;2023-04-26T14:55:33;11.20;88.10
17813;DHT22;9030;50.792;8.320;2023-04-26T14:58:01;11.50;90.40
17813;DHT22;9030;50.792;8.320;2023-04-26T15:00:28;11.60;87.20
17813;DHT22;9030;50.792;8.320;2023-04-26T15:02:55;11.20;86.90
17813;DHT22;9030;50.792;8.320;2023-04-26T15:05:25;11.80;90.40
17813;DHT22;9030;50.792;8.320;2023-04-26T15:07:52;12.50;88.40
17813;DHT22;9030;50.792;8.320;2023-04-26T15:10:19;12.10;87.80
17813;DHT22;9030;50.792;8.320;2023-04-26T15:12:47;11.70;87.00
17813;DHT22;9030;50.792;8.320;2023-04-26T15:15:14;11.60;87.10
17813;DHT22;9030;50.792;8.320;2023-04-26T15:17:40;12.30;88.60
17813;DHT22;9030;50.792;8.320;2023-04-26T15:20:07;12.50;85.10
17813;DHT22;9030;50.792;8.320;2023-04-26T15:22:36;12.00;85.90
17813;DHT22;9030;50.792;8.320;2023-04-26T15:25:03;11.90;86.70
17813;DHT22;9030;50.792;8.320;2023-04-26T15:27:32;11.90;89.70
17813;DHT22;9030;50.792;8.320;2023-04-26T15:30:01;12.00;88.70
17813;DHT22;9030;50.792;8.320;2023-04-26T15:32:28;11.80;86.40
17813;DHT22;9030;50.792;8.320;2023-04-26T15:34:55;11.60;86.80
17813;DHT22;9030;50.792;8.320;2023-04-26T15:37:22;10.90;90.10
17813;DHT22;9030;50.792;8.320;2023-04-26T15:39:49;10.50;88.70
17813;DHT22;9030;50.792;8.320;2023-04-26T15:42:15;10.10;90.10
17813;DHT22;9030;50.792;8.320;2023-04-26T15:44:42;10.30;91.70
17813;DHT22;9030;50.792;8.320;2023-04-26T15:47:10;10.80;89.40
17813;DHT22;9030;50.792;8.320;2023-04-26T15:49:37;11.20;89.30
17813;DHT22;9030;50.792;8.320;2023-04-26T15:52:04;11.10;86.00
17813;DHT22;9030;50.792;8.320;2023-04-26T15:54:31;11.50;87.00
17813;DHT22;9030;50.792;8.320;2023-04-26T15:56:57;11.60;87.80
17813;DHT22;9030;50.792;8.320;2023-04-26T15:59:24;11.60;84.80
17813;DHT22;9030;50.792;8.320;2023-04-26T16:01:51;11.40;86.00